Time,TemperatureF,DewpointF,PressureIn,WindDirection,WindDirectionDegrees,WindSpeedMPH,WindSpeedGustMPH,Humidity,HourlyPrecipIn,Conditions,Clouds,dailyrainin,SolarRadiationWatts/m^2,SoftwareType,DateUTC
2013-05-02 00:21:00,55.0,-19.0,30.18,North,3,5.0,13.0,4,0.00,,,0.00,0.000000,,2013-05-02 07:21:00,
2013-05-02 02:21:00,52.0,-17.0,30.21,WNW,282,2.0,8.0,5,0.00,,,0.00,0.000000,,2013-05-02 09:21:00,
2013-05-02 03:22:00,52.0,-13.0,30.22,NNE,26,2.0,9.0,6,0.00,,,0.00,0.000000,,2013-05-02 10:22:00,
2013-05-02 03:32:00,52.0,-13.0,30.22,NNE,26,2.0,9.0,6,0.00,,,0.00,0.000000,,2013-05-02 10:32:00,
2013-05-02 03:42:00,52.0,-13.0,30.22,NNE,26,2.0,9.0,6,0.00,,,0.00,0.000000,,2013-05-02 10:42:00,
2013-05-02 03:52:00,52.0,-13.0,30.22,NNE,26,2.0,9.0,6,0.00,,,0.00,0.000000,,2013-05-02 10:52:00,
2013-05-02 04:22:00,52.0,-13.0,30.24,North,11,7.0,7.0,6,0.00,,,0.00,0.000000,,2013-05-02 11:22:00,
2013-05-02 04:32:00,52.0,-13.0,30.24,North,11,7.0,7.0,6,0.00,,,0.00,0.000000,,2013-05-02 11:32:00,
2013-05-02 04:42:00,52.0,-13.0,30.24,North,11,7.0,7.0,6,0.00,,,0.00,0.000000,,2013-05-02 11:42:00,
2013-05-02 04:52:00,52.0,-13.0,30.24,North,11,7.0,7.0,6,0.00,,,0.00,0.000000,,2013-05-02 11:52:00,
2013-05-02 05:21:00,49.0,-12.0,30.27,NNW,348,4.0,10.0,7,0.00,,,0.00,0.000000,,2013-05-02 12:21:00,
2013-05-02 06:21:00,56.0,-4.0,30.28,NNE,21,11.0,11.0,8,0.00,,,0.00,0.000000,,2013-05-02 13:21:00,
2013-05-02 06:31:00,56.0,-4.0,30.28,NNE,21,11.0,11.0,8,0.00,,,0.00,0.000000,,2013-05-02 13:31:00,
2013-05-02 06:41:00,56.0,-4.0,30.28,NNE,21,11.0,11.0,8,0.00,,,0.00,0.000000,,2013-05-02 13:41:00,
2013-05-02 06:52:00,56.0,-4.0,30.28,NNE,21,11.0,11.0,8,0.00,,,0.00,0.000000,,2013-05-02 13:52:00,
2013-05-02 07:22:00,58.0,-6.0,-100.00,NNE,28,12.0,17.0,7,0.00,,,0.00,44.000000,,2013-05-02 14:22:00,
2013-05-02 07:32:00,58.0,-6.0,-100.00,NNE,28,12.0,17.0,7,0.00,,,0.00,44.000000,,2013-05-02 14:32:00,
2013-05-02 07:42:00,58.0,-6.0,-100.00,NNE,28,12.0,17.0,7,0.00,,,0.00,44.000000,,2013-05-02 14:42:00,
2013-05-02 07:52:00,58.0,-6.0,-100.00,NNE,28,12.0,17.0,7,0.00,,,0.00,44.000000,,2013-05-02 14:52:00,
2013-05-02 08:22:00,62.0,-6.0,-100.00,NE,52,13.0,22.0,6,0.00,,,0.00,267.000000,,2013-05-02 15:22:00,
2013-05-02 08:33:00,62.0,-6.0,-100.00,NE,52,13.0,22.0,6,0.00,,,0.00,267.000000,,2013-05-02 15:33:00,
2013-05-02 09:22:00,69.0,-5.0,30.32,ENE,68,18.0,23.0,5,0.00,,,0.00,512.000000,,2013-05-02 16:22:00,
2013-05-02 09:32:00,69.0,-5.0,30.32,ENE,68,18.0,23.0,5,0.00,,,0.00,512.000000,,2013-05-02 16:32:00,
2013-05-02 09:43:00,69.0,-5.0,30.32,ENE,68,18.0,23.0,5,0.00,,,0.00,512.000000,,2013-05-02 16:43:00,
2013-05-02 09:52:00,69.0,-5.0,30.32,ENE,68,18.0,23.0,5,0.00,,,0.00,512.000000,,2013-05-02 16:52:00,
2013-05-02 11:21:00,71.0,-14.0,30.32,ENE,74,28.0,40.0,3,0.00,,,0.00,933.000000,,2013-05-02 18:21:00,
2013-05-02 11:31:00,71.0,-14.0,30.32,ENE,74,28.0,40.0,3,0.00,,,0.00,933.000000,,2013-05-02 18:31:00,
2013-05-02 12:21:00,75.0,-11.0,30.32,ENE,71,24.0,41.0,3,0.00,,,0.00,1069.000000,,2013-05-02 19:21:00,
2013-05-02 13:22:00,76.0,-18.0,-100.00,ENE,74,22.0,39.0,2,0.00,,,0.00,1140.000000,,2013-05-02 20:22:00,
2013-05-02 13:32:00,76.0,-18.0,-100.00,ENE,74,22.0,39.0,2,0.00,,,0.00,1140.000000,,2013-05-02 20:32:00,
2013-05-02 14:21:00,79.0,-16.0,30.28,East,79,19.0,35.0,2,0.00,,,0.00,1142.000000,,2013-05-02 21:21:00,
2013-05-02 15:22:00,78.0,-30.0,30.25,ENE,74,20.0,34.0,1,0.00,,,0.00,1072.000000,,2013-05-02 22:22:00,
2013-05-02 15:32:00,78.0,-30.0,30.25,ENE,74,20.0,34.0,1,0.00,,,0.00,1072.000000,,2013-05-02 22:32:00,
2013-05-02 16:22:00,79.0,-29.0,-100.00,ENE,72,18.0,34.0,1,0.00,,,0.00,935.000000,,2013-05-02 23:22:00,
2013-05-02 17:21:00,79.0,-29.0,30.21,ENE,73,19.0,32.0,1,0.00,,,0.00,739.000000,,2013-05-03 00:21:00,
2013-05-02 19:21:00,76.0,-18.0,-100.00,ENE,73,15.0,26.0,2,0.00,,,0.00,232.000000,,2013-05-03 02:21:00,
2013-05-02 21:22:00,64.0,-13.0,-100.00,NE,53,8.0,11.0,4,0.00,,,0.00,0.000000,,2013-05-03 04:22:00,
2013-05-02 21:32:00,64.0,-13.0,-100.00,NE,53,8.0,11.0,4,0.00,,,0.00,0.000000,,2013-05-03 04:32:00,
2013-05-02 21:42:00,64.0,-13.0,-100.00,NE,53,8.0,11.0,4,0.00,,,0.00,0.000000,,2013-05-03 04:42:00,
2013-05-02 21:52:00,64.0,-13.0,-100.00,NE,53,8.0,11.0,4,0.00,,,0.00,0.000000,,2013-05-03 04:52:00,
2013-05-02 22:21:00,56.0,-14.0,-100.00,NW,313,5.0,10.0,5,0.00,,,0.00,0.000000,,2013-05-03 05:21:00,
2013-05-02 23:42:00,53.0,-9.0,-100.00,NW,324,8.0,10.0,7,0.00,,,0.00,0.000000,,2013-05-03 06:42:00,
2013-05-02 23:51:00,53.0,-9.0,-100.00,NW,324,8.0,10.0,7,0.00,,,0.00,0.000000,,2013-05-03 06:51:00,